Amgu — V3NS9 — position and weather

sailwx.info

Track history (hours):
 
Tides and Currents Weather Stations Pressure Air Temp Water Temp Dewpoint Dewpoint Depression Visibility Wind Speed Wind Dir Waves Ship Positions

Amgu

Last reported at 2018-Apr-14 16:14 UTC. Time now 2018-Jun-25 19:43 UTC.
Position N 41°25' E 140°24'.
Warning: this ship's position is months out of date.

Length 100 m; draft 4.6 m.

Type: Cargo ship. MMSI: 312779000.

Date/timePositionNaut miles runAvg speedWind from/ knotsBaromVisibWave heightAir tempDewpointWater temp
2018-Apr-14 16:14N 41°25' E 140°24'312.6
2018-Apr-14 15:58N 41°27' E 140°27'612.4
2018-Apr-14 15:30N 41°31' E 140°33'612.2
2018-Apr-14 15:00N 41°33' E 140°40'611.2
2018-Apr-14 14:30N 41°36' E 140°47'510.1
2018-Apr-14 14:00N 41°38' E 140°53'510.2
2018-Apr-14 13:30N 41°37' E 140°60'510.3
2018-Apr-14 13:00N 41°36' E 141°07'611.5
2018-Apr-14 12:30N 41°34' E 141°14'612.1
2018-Apr-14 12:00N 41°33' E 141°22'611.7
2018-Apr-14 11:27N 41°30' E 141°29'611.9
2018-Apr-14 10:56N 41°25' E 141°35'  
2018-Apr-11 10:33N 41°33' E 141°25'3 9.9
2018-Apr-11 10:17N 41°35' E 141°23'  
2018-Apr-07 19:26N 41°37' E 141°12'510.9
2018-Apr-07 19:00N 41°37' E 141°05'612.8
2018-Apr-07 18:31N 41°36' E 140°57'612.7
2018-Apr-07 18:01N 41°34' E 140°49'612.5
2018-Apr-07 17:30N 41°31' E 140°42'612.7
2018-Apr-07 17:00N 41°27' E 140°35'3013.0
2018-Apr-07 14:42N 41°18' E 139°57'312.7
2018-Apr-07 14:30N 41°19' E 139°54'712.0
2018-Apr-07 13:54N 41°19' E 139°44'512.0
2018-Apr-07 13:29N 41°21' E 139°38'1011.5
2018-Apr-07 12:39N 41°23' E 139°26'211.8
2018-Apr-07 12:30N 41°24' E 139°23'  
Track history (hours):
 
Tides and Currents Weather Stations Pressure Air Temp Water Temp Dewpoint Dewpoint Depression Visibility Wind Speed Wind Dir Waves Ship Positions

Amgu

Last reported at 2018-Apr-14 16:14 UTC. Time now 2018-Jun-25 19:43 UTC.
Position N 41°25' E 140°24'.
Warning: this ship's position is months out of date.

Length 100 m; draft 4.6 m.

Type: Cargo ship. MMSI: 312779000.

Date/timePositionNaut miles runAvg speedWind from/ knotsBaromVisibWave heightAir tempDewpointWater temp
2018-Apr-14 16:14N 41°25' E 140°24'312.6
2018-Apr-14 15:58N 41°27' E 140°27'612.4
2018-Apr-14 15:30N 41°31' E 140°33'612.2
2018-Apr-14 15:00N 41°33' E 140°40'611.2
2018-Apr-14 14:30N 41°36' E 140°47'510.1
2018-Apr-14 14:00N 41°38' E 140°53'510.2
2018-Apr-14 13:30N 41°37' E 140°60'510.3
2018-Apr-14 13:00N 41°36' E 141°07'611.5
2018-Apr-14 12:30N 41°34' E 141°14'612.1
2018-Apr-14 12:00N 41°33' E 141°22'611.7
2018-Apr-14 11:27N 41°30' E 141°29'611.9
2018-Apr-14 10:56N 41°25' E 141°35'  
2018-Apr-11 10:33N 41°33' E 141°25'3 9.9
2018-Apr-11 10:17N 41°35' E 141°23'  
2018-Apr-07 19:26N 41°37' E 141°12'510.9
2018-Apr-07 19:00N 41°37' E 141°05'612.8
2018-Apr-07 18:31N 41°36' E 140°57'612.7
2018-Apr-07 18:01N 41°34' E 140°49'612.5
2018-Apr-07 17:30N 41°31' E 140°42'612.7
2018-Apr-07 17:00N 41°27' E 140°35'3013.0
2018-Apr-07 14:42N 41°18' E 139°57'312.7
2018-Apr-07 14:30N 41°19' E 139°54'712.0
2018-Apr-07 13:54N 41°19' E 139°44'512.0
2018-Apr-07 13:29N 41°21' E 139°38'1011.5
2018-Apr-07 12:39N 41°23' E 139°26'211.8
2018-Apr-07 12:30N 41°24' E 139°23'  

Dump ship's entire track history